CW6020 Teulada ES current weather conditions

sailwx.info

Wind from 225

Air temperature 20.6° C
Dewpoint 14.9° C

Last reported at 2017-May-27 00:01 UTC.
Time now 2017-May-27 00:38 UTC

Location: N 38°44' E 000°06'.
View on Google Maps.

See reports from other nearby stations

  
Tides and Currents Weather Stations Pressure Air Temp Water Temp Dewpoint Dewpoint Depression Visibility Wind Speed Wind Dir Waves Ship Positions
date/time (UTC)wind fromknots sea level pressurealtimeterstation pressurevisibilityair tempwater tempwave heightnotes
2017-May-27 00:01 225 20.6
2017-May-26 23:51 045 20.0
2017-May-26 23:41 20.0
2017-May-26 23:31 20.0
2017-May-26 23:21 315 20.0
2017-May-26 23:11 20.0
2017-May-26 23:01 20.0
2017-May-26 22:51 135 20.0
2017-May-26 22:41 20.0
2017-May-26 22:31 135 0 gusting 2 20.6
2017-May-26 22:21 20.6
2017-May-26 22:11 20.6
2017-May-26 22:01 21.1
2017-May-26 21:51 21.1
2017-May-26 21:41 21.1
2017-May-26 21:31 045 21.7
2017-May-26 21:21 21.7
2017-May-26 21:11 21.7
2017-May-26 21:01 22.2
2017-May-26 20:51 22.2
2017-May-26 20:41 22.2
2017-May-26 20:31 22.8
2017-May-26 20:21 22.8
2017-May-26 20:11 22.8
2017-May-26 20:01 23.3
2017-May-26 19:51 135 0 gusting 1 23.3
2017-May-26 19:41 090 23.9
2017-May-26 19:31 23.9
2017-May-26 19:21 24.4
2017-May-26 19:11 270 25.0
2017-May-26 19:01 25.0
2017-May-26 18:51 25.6
2017-May-26 18:41 25.6
2017-May-26 18:31 225 26.1
2017-May-26 18:21 26.7
2017-May-26 18:11 26.7
2017-May-26 18:01 27.2
2017-May-26 17:51 045 27.2
2017-May-26 17:41 090 27.8
2017-May-26 17:31 090 0 gusting 2 27.8
2017-May-26 17:21 28.3
2017-May-26 17:11 045 1 gusting 4 28.3
2017-May-26 17:01 135 1 gusting 4 28.9
2017-May-26 16:51 180 1 gusting 2 28.9
2017-May-26 16:41 090 0 gusting 1 28.3
2017-May-26 16:31 090 1 gusting 2 28.3
2017-May-26 16:21 090 2 gusting 5 28.3
2017-May-26 16:11 225 0 gusting 2 28.3
2017-May-26 16:01 135 3 gusting 6 28.9
2017-May-26 15:51 135 2 gusting 5 28.9
2017-May-26 15:41 135 3 gusting 6 28.9
2017-May-26 15:31 135 2 gusting 3 28.9
2017-May-26 15:21 112 3 gusting 6 28.9
2017-May-26 15:11 180 6 gusting 7 28.9
2017-May-26 15:01 135 3 gusting 6 28.9
2017-May-26 14:51 135 5 gusting 7 28.9
2017-May-26 14:41 180 2 gusting 4 28.9
2017-May-26 14:31 315 2 gusting 5 28.3
2017-May-26 14:21 225 2 gusting 3 28.9
2017-May-26 14:11 180 5 gusting 6 28.3
2017-May-26 14:01 180 4 gusting 6 28.3
2017-May-26 13:51 090 4 gusting 6 28.3
2017-May-26 13:41 180 2 gusting 3 28.3
2017-May-26 13:31 180 5 gusting 7 28.3
2017-May-26 13:21 135 3 gusting 6 28.3
2017-May-26 13:11 180 6 gusting 8 28.9
2017-May-26 13:01 135 5 gusting 8 29.4
2017-May-26 12:51 225 1 gusting 2 29.4
2017-May-26 12:41 225 2 gusting 6 28.9
2017-May-26 12:31 135 4 gusting 7 28.9
2017-May-26 12:19 135 3 gusting 6 28.9
2017-May-26 12:06 225 3 gusting 6 28.9
2017-May-26 11:56 045 2 gusting 5 28.9
2017-May-26 11:46 135 6 gusting 8 28.9
2017-May-26 11:36 022 1 gusting 2 28.9
2017-May-26 11:26 135 2 gusting 5 28.9
2017-May-26 11:16 315 28.9
2017-May-26 11:06 180 1 gusting 3 28.9
2017-May-26 10:56 135 4 gusting 6 28.9
2017-May-26 10:46 180 0 gusting 2 28.3
2017-May-26 10:36 135 3 gusting 5 28.3
2017-May-26 10:26 045 1 gusting 3 28.3
2017-May-26 10:16 135 2 gusting 3 28.3
2017-May-26 10:06 135 1 gusting 4 28.3
2017-May-26 09:56 135 2 gusting 5 27.8
2017-May-26 09:46 180 1 gusting 2 27.8
2017-May-26 09:36 135 3 gusting 5 27.8
2017-May-26 09:26 135 2 gusting 4 27.2
2017-May-26 09:16 180 0 gusting 2 27.2
2017-May-26 09:06 090 26.7
2017-May-26 08:56 045 0 gusting 1 26.7
2017-May-26 08:46 315 26.1
2017-May-26 08:35 045 25.6
2017-May-26 08:21 337 25.6
2017-May-26 08:06 270 24.4
2017-May-26 07:56 045 0 gusting 2 23.9
2017-May-26 07:46 045 23.3
2017-May-26 07:36 135 22.8
2017-May-26 07:26 22.2
2017-May-26 07:15 21.7
2017-May-26 07:01 270 20.6
2017-May-26 06:51 20.0
2017-May-26 06:41 19.4
2017-May-26 06:31 18.3
2017-May-26 06:21 17.2
2017-May-26 06:11 17.2
2017-May-26 06:01 16.7
2017-May-26 05:41 16.7
2017-May-26 05:31 16.7
2017-May-26 05:21 16.7
2017-May-26 05:11 16.7
2017-May-26 05:01 16.7
2017-May-26 04:51 16.7
2017-May-26 04:41 17.2
2017-May-26 04:21 17.2
2017-May-26 04:11 17.8
2017-May-26 04:01 17.8
2017-May-26 03:51 17.8
2017-May-26 03:41 17.8
2017-May-26 03:31 17.8
2017-May-26 03:21 17.8
2017-May-26 03:01 17.8
2017-May-26 02:51 17.8
2017-May-26 02:41 17.8
2017-May-26 02:26 17.8
2017-May-26 02:12 17.8
2017-May-26 02:01 18.3
2017-May-26 01:51 18.3
2017-May-26 01:41 090 18.9
2017-May-26 01:31 18.3
2017-May-26 01:21 270 18.3
2017-May-26 01:11 337 18.3
2017-May-26 01:01 180 18.3
2017-May-26 00:46 18.3
2017-May-26 00:32 090 18.3
2017-May-26 00:21 135 18.3
2017-May-26 00:11 18.9
2017-May-26 00:02 18.9
2017-May-25 23:51 090 18.9
2017-May-25 23:41 18.9
2017-May-25 23:26 135 19.4
2017-May-25 23:12 045 20.0
2017-May-25 23:01 270 20.0
2017-May-25 22:51 045 20.0
2017-May-25 22:41 20.0
2017-May-25 22:31 20.6
2017-May-25 22:21 20.6
2017-May-25 22:11 20.6
2017-May-25 22:01 270 1 gusting 3 20.6
2017-May-25 21:51 225 0 gusting 2 20.6
2017-May-25 21:41 315 0 gusting 2 20.6
2017-May-25 21:31 315 1 gusting 2 20.6
2017-May-25 21:21 270 2 gusting 3 20.6
2017-May-25 21:11 315 1 gusting 2 21.1
2017-May-25 21:01 225 1 gusting 2 21.1
2017-May-25 20:51 315 0 gusting 2 21.1
2017-May-25 20:41 270 0 gusting 1 21.7
2017-May-25 20:26 270 1 gusting 2 21.7
2017-May-25 20:16 270 21.7
2017-May-25 20:02 270 0 gusting 1 22.2
2017-May-25 19:51 22.8
2017-May-25 19:41 225 0 gusting 2 22.8
2017-May-25 19:31 315 23.3
2017-May-25 19:22 270 23.3
2017-May-25 19:11 225 23.9
2017-May-25 19:01 225 1 gusting 2 23.9
2017-May-25 18:51 270 0 gusting 2 24.4
2017-May-25 18:41 315 0 gusting 2 25.0
2017-May-25 18:31 090 1 gusting 2 25.0
2017-May-25 18:21 180 2 gusting 3 25.6
2017-May-25 18:11 045 2 gusting 4 26.1
2017-May-25 18:01 180 2 gusting 5 26.1
2017-May-25 17:51 180 2 gusting 4 26.7
2017-May-25 17:41 180 2 gusting 5 27.2
2017-May-25 17:31 180 5 gusting 7 27.8
2017-May-25 17:21 180 2 gusting 5 27.8
2017-May-25 17:11 270 1 gusting 3 27.8
2017-May-25 17:01 180 5 gusting 7 27.8
2017-May-25 16:51 292 3 gusting 6 27.8
2017-May-25 16:41 292 4 gusting 6 27.8
2017-May-25 16:31 135 3 gusting 6 28.3
2017-May-25 16:21 225 2 gusting 4 28.3
2017-May-25 16:11 270 2 gusting 4 28.3
2017-May-25 16:01 315 2 gusting 5 27.8
2017-May-25 15:51 270 2 gusting 5 27.8
2017-May-25 15:41 225 4 gusting 6 27.8
2017-May-25 15:31 135 5 gusting 7 27.8
2017-May-25 15:21 135 5 gusting 6 27.8
2017-May-25 15:11 315 3 gusting 6 27.8
2017-May-25 15:01 180 2 gusting 5 27.8
2017-May-25 14:51 202 4 gusting 6 27.2
2017-May-25 14:41 180 4 gusting 5 27.2
2017-May-25 14:31 180 5 gusting 7 27.2
2017-May-25 14:21 180 5 gusting 6 27.2
2017-May-25 14:11 180 5 gusting 7 27.2
2017-May-25 14:02 135 3 gusting 5 26.7
2017-May-25 13:51 225 3 gusting 5 26.7
2017-May-25 13:41 135 4 gusting 6 26.7
2017-May-25 13:31 180 4 gusting 6 26.7
2017-May-25 13:21 135 5 gusting 6 27.2
2017-May-25 13:11 225 2 gusting 6 27.2
2017-May-25 13:01 135 2 gusting 5 26.7
2017-May-25 12:51 180 3 gusting 6 26.7
2017-May-25 12:41 225 4 gusting 6 27.2
2017-May-25 12:26 135 5 gusting 9 27.2
2017-May-25 12:15 247 3 gusting 5 27.2
2017-May-25 12:01 180 3 gusting 6 27.2
2017-May-25 11:51 180 4 gusting 7 27.2
2017-May-25 11:41 022 4 gusting 6 27.8
2017-May-25 11:31 135 4 gusting 7 27.8
2017-May-25 11:21 202 2 gusting 4 28.3
2017-May-25 11:11 315 2 gusting 5 27.8
2017-May-25 11:01 225 3 gusting 7 27.8
2017-May-25 10:51 225 3 gusting 4 28.3
2017-May-25 10:41 135 3 gusting 6 28.3
2017-May-25 10:31 135 4 gusting 6 28.3
2017-May-25 10:21 202 2 gusting 5 27.8
2017-May-25 10:11 135 2 gusting 5 27.8
2017-May-25 10:01 135 3 gusting 6 27.8
2017-May-25 09:51 067 2 gusting 4 27.8
2017-May-25 09:41 045 0 gusting 1 27.8
2017-May-25 09:31 090 0 gusting 2 27.2
2017-May-25 09:21 180 0 gusting 1 27.2
2017-May-25 09:11 067 0 gusting 2 26.7
2017-May-25 09:01 135 26.1
2017-May-25 08:51 090 0 gusting 2 25.6
2017-May-25 08:41 225 25.6
2017-May-25 08:31 25.0
2017-May-25 08:21 135 25.0
2017-May-25 08:11 23.9
2017-May-25 08:01 23.9
2017-May-25 07:51 23.3
2017-May-25 07:41 135 2 gusting 3 22.8
2017-May-25 07:31 22.2
2017-May-25 07:22 022 0 gusting 2 21.7
2017-May-25 07:11 21.1
2017-May-25 07:01 270 0 gusting 2 20.6
2017-May-25 06:51 292 0 gusting 2 20.0
2017-May-25 06:41 19.4
2017-May-25 06:31 315 18.9
2017-May-25 06:21 022 0 gusting 2 18.3
2017-May-25 06:11 270 17.8
2017-May-25 06:01 270 2 gusting 2 17.2
2017-May-25 05:51 045 17.2
2017-May-25 05:41 225 0 gusting 2 16.7
2017-May-25 05:31 225 1 gusting 2 16.1
2017-May-25 05:21 315 16.1
2017-May-25 05:11 045 0 gusting 1 15.6
2017-May-25 05:01 135 0 gusting 2 15.6
2017-May-25 04:51 15.6
2017-May-25 04:41 090 15.0
2017-May-25 04:31 090 0 gusting 1 14.4
2017-May-25 04:21 135 14.4
2017-May-25 04:11 14.4
2017-May-25 04:01 14.4
2017-May-25 03:46 14.4
2017-May-25 03:32 15.0
2017-May-25 03:21 15.0
2017-May-25 03:06 15.0
2017-May-25 02:52 15.0
2017-May-25 02:41 15.0
2017-May-25 02:31 15.0
2017-May-25 02:20 15.6
2017-May-25 02:06 15.6
2017-May-25 01:52 15.6
2017-May-25 01:41 15.6
2017-May-25 01:31 15.6
2017-May-25 01:21 15.6
2017-May-25 01:11 15.6
2017-May-25 01:02 16.1
2017-May-25 00:51 15.6
2017-May-25 00:41 15.6
2017-May-25 00:26 15.6
2017-May-25 00:12 15.6
2017-May-25 00:01 15.6